Time,TemperatureF,DewpointF,PressureIn,WindDirection,WindDirectionDegrees,WindSpeedMPH,WindSpeedGustMPH,Humidity,HourlyPrecipIn,Conditions,Clouds,dailyrainin,SoftwareType,DateUTC
2013-10-22 00:02:00,49.5,34.0,29.93,SW,226,0.0,0.0,55,0.00,,,0.00,VWS V14.01,2013-10-22 07:02:00,
2013-10-22 00:07:00,49.5,34.0,29.93,SW,225,0.0,0.0,55,0.00,,,0.00,VWS V14.01,2013-10-22 07:07:00,
2013-10-22 00:12:00,49.5,34.0,29.93,SW,225,0.0,0.0,55,0.00,,,0.00,VWS V14.01,2013-10-22 07:12:00,
2013-10-22 00:17:00,49.5,34.0,29.93,SW,226,0.0,0.0,55,0.00,,,0.00,VWS V14.01,2013-10-22 07:17:00,
2013-10-22 00:22:00,49.3,33.8,29.93,SW,226,0.0,0.0,55,0.00,,,0.00,VWS V14.01,2013-10-22 07:22:00,
2013-10-22 00:27:00,49.5,34.0,29.93,SW,226,0.0,0.0,55,0.00,,,0.00,VWS V14.01,2013-10-22 07:27:00,
2013-10-22 00:32:00,49.6,34.6,29.93,SW,226,0.0,0.0,56,0.00,,,0.00,VWS V14.01,2013-10-22 07:32:00,
2013-10-22 00:37:00,49.8,34.8,29.93,SW,225,0.0,0.0,56,0.00,,,0.00,VWS V14.01,2013-10-22 07:37:00,
2013-10-22 00:42:00,50.2,35.1,29.93,SW,226,0.0,0.0,56,0.00,,,0.00,VWS V14.01,2013-10-22 07:42:00,
2013-10-22 00:47:00,50.4,35.3,29.93,SW,226,0.0,0.0,56,0.00,,,0.00,VWS V14.01,2013-10-22 07:47:00,
2013-10-22 00:52:00,50.5,35.4,29.93,SW,226,0.0,2.2,56,0.00,,,0.00,VWS V14.01,2013-10-22 07:52:00,
2013-10-22 00:57:00,50.7,35.6,29.93,SW,226,0.0,0.0,56,0.00,,,0.00,VWS V14.01,2013-10-22 07:57:00,
2013-10-22 01:02:00,50.7,35.6,29.93,SW,226,0.0,0.0,56,0.00,,,0.00,VWS V14.01,2013-10-22 08:02:00,
2013-10-22 01:07:00,50.7,35.6,29.93,SW,226,0.0,0.0,56,0.00,,,0.00,VWS V14.01,2013-10-22 08:07:00,
2013-10-22 01:12:00,50.5,35.4,29.93,SW,226,0.0,0.0,56,0.00,,,0.00,VWS V14.01,2013-10-22 08:12:00,
2013-10-22 01:17:00,50.5,35.4,29.93,SW,225,0.0,0.0,56,0.00,,,0.00,VWS V14.01,2013-10-22 08:17:00,
2013-10-22 01:22:00,50.5,35.9,29.93,SW,226,0.0,0.0,57,0.00,,,0.00,VWS V14.01,2013-10-22 08:22:00,
2013-10-22 01:27:00,50.7,36.1,29.93,SW,226,0.0,0.0,57,0.00,,,0.00,VWS V14.01,2013-10-22 08:27:00,
2013-10-22 01:32:00,50.7,36.1,29.93,SW,226,0.0,0.0,57,0.00,,,0.00,VWS V14.01,2013-10-22 08:32:00,
2013-10-22 01:37:00,50.7,36.1,29.93,SW,225,0.0,0.0,57,0.00,,,0.00,VWS V14.01,2013-10-22 08:37:00,
2013-10-22 01:42:00,50.7,36.1,29.93,SW,222,0.0,2.7,57,0.00,,,0.00,VWS V14.01,2013-10-22 08:42:00,
2013-10-22 01:47:00,50.7,36.1,29.93,SW,222,0.0,0.0,57,0.00,,,0.00,VWS V14.01,2013-10-22 08:47:00,
2013-10-22 01:52:00,50.9,36.7,29.93,SW,222,0.0,0.0,58,0.00,,,0.00,VWS V14.01,2013-10-22 08:52:00,
2013-10-22 01:57:00,50.9,36.7,29.93,SW,222,0.0,0.0,58,0.00,,,0.00,VWS V14.01,2013-10-22 08:57:00,
2013-10-22 02:02:00,50.9,36.7,29.93,SSW,213,2.2,3.1,58,0.00,,,0.00,VWS V14.01,2013-10-22 09:02:00,
2013-10-22 02:07:00,50.7,36.5,29.93,SW,214,0.0,0.0,58,0.00,,,0.00,VWS V14.01,2013-10-22 09:07:00,
2013-10-22 02:12:00,50.7,36.5,29.93,SW,227,3.6,3.6,58,0.00,,,0.00,VWS V14.01,2013-10-22 09:12:00,
2013-10-22 02:17:00,50.7,36.5,29.93,SSW,207,0.0,0.0,58,0.00,,,0.00,VWS V14.01,2013-10-22 09:17:00,
2013-10-22 02:22:00,50.7,36.9,29.93,SSW,207,0.0,0.0,59,0.00,,,0.00,VWS V14.01,2013-10-22 09:22:00,
2013-10-22 02:27:00,50.7,36.9,29.93,SSW,207,0.0,0.0,59,0.00,,,0.00,VWS V14.01,2013-10-22 09:27:00,
2013-10-22 02:32:00,50.5,36.8,29.93,SSW,207,0.0,0.0,59,0.00,,,0.00,VWS V14.01,2013-10-22 09:32:00,
2013-10-22 02:37:00,50.5,36.8,29.93,SSW,207,0.0,0.0,59,0.00,,,0.00,VWS V14.01,2013-10-22 09:37:00,
2013-10-22 02:42:00,50.5,37.2,29.93,East,99,0.0,0.0,60,0.00,,,0.00,VWS V14.01,2013-10-22 09:42:00,
2013-10-22 02:48:00,50.5,37.2,29.93,East,99,0.0,0.0,60,0.00,,,0.00,VWS V14.01,2013-10-22 09:48:00,
2013-10-22 02:53:00,50.4,37.0,29.93,SSE,155,0.0,0.0,60,0.00,,,0.00,VWS V14.01,2013-10-22 09:53:00,
2013-10-22 02:58:00,50.4,37.0,29.93,SSE,156,0.0,0.0,60,0.00,,,0.00,VWS V14.01,2013-10-22 09:58:00,
2013-10-22 03:03:00,50.4,37.4,29.93,SSE,155,0.0,0.0,61,0.00,,,0.00,VWS V14.01,2013-10-22 10:03:00,
2013-10-22 03:08:00,50.5,37.6,29.93,SSW,205,0.0,0.0,61,0.00,,,0.00,VWS V14.01,2013-10-22 10:08:00,
2013-10-22 03:13:00,50.5,37.6,29.93,SSW,196,0.0,0.0,61,0.00,,,0.00,VWS V14.01,2013-10-22 10:13:00,
2013-10-22 03:18:00,50.5,38.0,29.93,South,177,0.0,0.0,62,0.00,,,0.00,VWS V14.01,2013-10-22 10:18:00,
2013-10-22 03:23:00,50.5,38.0,29.93,South,175,2.2,2.2,62,0.00,,,0.00,VWS V14.01,2013-10-22 10:23:00,
2013-10-22 03:28:00,50.5,38.0,29.93,South,175,0.0,0.0,62,0.00,,,0.00,VWS V14.01,2013-10-22 10:28:00,
2013-10-22 03:33:00,50.7,38.6,29.93,South,187,0.0,0.0,63,0.00,,,0.00,VWS V14.01,2013-10-22 10:33:00,
2013-10-22 03:38:00,50.5,38.4,29.90,South,187,0.0,0.0,63,0.00,,,0.00,VWS V14.01,2013-10-22 10:38:00,
2013-10-22 03:43:00,50.5,38.0,29.90,South,191,0.0,2.7,62,0.00,,,0.00,VWS V14.01,2013-10-22 10:43:00,
2013-10-22 03:48:00,50.4,38.3,29.90,SSE,156,2.7,2.7,63,0.00,,,0.00,VWS V14.01,2013-10-22 10:48:00,
2013-10-22 03:53:00,50.5,38.4,29.90,SSE,160,0.0,2.2,63,0.00,,,0.00,VWS V14.01,2013-10-22 10:53:00,
2013-10-22 03:58:00,50.4,38.7,29.90,SSW,197,0.0,0.0,64,0.00,,,0.00,VWS V14.01,2013-10-22 10:58:00,
2013-10-22 04:03:00,50.4,38.7,29.90,South,186,0.0,0.0,64,0.00,,,0.00,VWS V14.01,2013-10-22 11:03:00,
2013-10-22 04:08:00,50.5,38.8,29.90,ESE,110,0.0,0.0,64,0.00,,,0.00,VWS V14.01,2013-10-22 11:08:00,
2013-10-22 04:13:00,50.4,38.7,29.90,ESE,110,0.0,0.0,64,0.00,,,0.00,VWS V14.01,2013-10-22 11:13:00,
2013-10-22 04:18:00,50.5,39.2,29.90,SW,231,0.0,0.0,65,0.00,,,0.00,VWS V14.01,2013-10-22 11:18:00,
2013-10-22 04:23:00,50.5,39.2,29.93,South,171,0.0,0.0,65,0.00,,,0.00,VWS V14.01,2013-10-22 11:23:00,
2013-10-22 04:28:00,50.5,39.2,29.93,SSE,150,3.1,3.1,65,0.00,,,0.00,VWS V14.01,2013-10-22 11:28:00,
2013-10-22 04:33:00,50.5,39.2,29.93,South,182,2.2,2.2,65,0.00,,,0.00,VWS V14.01,2013-10-22 11:33:00,
2013-10-22 04:38:00,50.4,39.1,29.90,SSE,167,0.0,0.0,65,0.00,,,0.00,VWS V14.01,2013-10-22 11:38:00,
2013-10-22 04:43:00,50.2,38.9,29.90,South,175,2.2,2.7,65,0.00,,,0.00,VWS V14.01,2013-10-22 11:43:00,
2013-10-22 04:48:00,50.2,38.9,29.90,South,179,0.0,0.0,65,0.00,,,0.00,VWS V14.01,2013-10-22 11:48:00,
2013-10-22 04:53:00,50.2,39.3,29.90,ESE,123,0.0,0.0,66,0.00,,,0.00,VWS V14.01,2013-10-22 11:53:00,
2013-10-22 04:58:00,50.2,39.3,29.90,SE,143,0.0,0.0,66,0.00,,,0.00,VWS V14.01,2013-10-22 11:58:00,
2013-10-22 05:03:00,50.0,39.1,29.90,SE,141,0.0,0.0,66,0.00,,,0.00,VWS V14.01,2013-10-22 12:03:00,
2013-10-22 05:08:00,49.8,38.9,29.90,SE,141,0.0,0.0,66,0.00,,,0.00,VWS V14.01,2013-10-22 12:08:00,
2013-10-22 05:13:00,49.8,38.9,29.90,SE,141,0.0,0.0,66,0.00,,,0.00,VWS V14.01,2013-10-22 12:13:00,
2013-10-22 05:18:00,50.0,39.5,29.90,SSE,168,0.0,0.0,67,0.00,,,0.00,VWS V14.01,2013-10-22 12:18:00,
2013-10-22 05:23:00,50.2,39.7,29.93,South,170,3.1,3.1,67,0.00,,,0.00,VWS V14.01,2013-10-22 12:23:00,
2013-10-22 05:28:00,50.2,39.7,29.93,SSE,163,4.9,4.9,67,0.00,,,0.00,VWS V14.01,2013-10-22 12:28:00,
2013-10-22 05:33:00,50.2,39.7,29.93,SSW,205,0.0,2.7,67,0.00,,,0.00,VWS V14.01,2013-10-22 12:33:00,
2013-10-22 05:38:00,50.2,39.7,29.93,SSE,165,2.7,2.7,67,0.00,,,0.00,VWS V14.01,2013-10-22 12:38:00,
2013-10-22 05:43:00,50.2,39.7,29.93,SSE,168,0.0,0.0,67,0.00,,,0.00,VWS V14.01,2013-10-22 12:43:00,
2013-10-22 05:48:00,50.2,40.0,29.93,SSE,160,2.2,2.7,68,0.00,,,0.00,VWS V14.01,2013-10-22 12:48:00,
2013-10-22 05:53:00,50.2,40.0,29.93,SE,146,0.0,0.0,68,0.00,,,0.00,VWS V14.01,2013-10-22 12:53:00,
2013-10-22 05:58:00,50.2,40.0,29.93,SE,130,0.0,0.0,68,0.00,,,0.00,VWS V14.01,2013-10-22 12:58:00,
2013-10-22 06:03:00,50.2,40.0,29.93,SSW,212,0.0,0.0,68,0.00,,,0.00,VWS V14.01,2013-10-22 13:03:00,
2013-10-22 06:08:00,50.4,40.2,29.93,SSW,212,0.0,0.0,68,0.00,,,0.00,VWS V14.01,2013-10-22 13:08:00,
2013-10-22 06:13:00,50.2,40.0,29.93,South,169,0.0,0.0,68,0.00,,,0.00,VWS V14.01,2013-10-22 13:13:00,
2013-10-22 06:18:00,50.2,40.0,29.93,SSE,161,0.0,0.0,68,0.00,,,0.00,VWS V14.01,2013-10-22 13:18:00,
2013-10-22 06:23:00,50.2,40.0,29.90,SSE,161,0.0,0.0,68,0.00,,,0.00,VWS V14.01,2013-10-22 13:23:00,
2013-10-22 06:28:00,50.2,40.0,29.90,South,176,0.0,0.0,68,0.00,,,0.00,VWS V14.01,2013-10-22 13:28:00,
2013-10-22 06:33:00,50.2,40.4,29.90,South,191,0.0,0.0,69,0.00,,,0.00,VWS V14.01,2013-10-22 13:33:00,
2013-10-22 06:38:00,50.2,40.4,29.93,South,183,0.0,0.0,69,0.00,,,0.00,VWS V14.01,2013-10-22 13:38:00,
2013-10-22 06:43:00,50.2,40.4,29.93,South,187,0.0,0.0,69,0.00,,,0.00,VWS V14.01,2013-10-22 13:43:00,
2013-10-22 06:48:00,50.2,40.4,29.93,South,187,0.0,0.0,69,0.00,,,0.00,VWS V14.01,2013-10-22 13:48:00,
2013-10-22 06:53:00,50.2,40.4,29.93,South,187,0.0,0.0,69,0.00,,,0.00,VWS V14.01,2013-10-22 13:53:00,
2013-10-22 06:58:00,50.2,40.4,29.93,South,187,0.0,0.0,69,0.00,,,0.00,VWS V14.01,2013-10-22 13:58:00,
2013-10-22 07:03:00,50.2,40.4,29.93,South,187,0.0,0.0,69,0.00,,,0.00,VWS V14.01,2013-10-22 14:03:00,
2013-10-22 07:08:00,50.2,40.4,29.93,South,187,0.0,0.0,69,0.00,,,0.00,VWS V14.01,2013-10-22 14:08:00,
2013-10-22 07:13:00,50.2,40.4,29.93,South,187,0.0,0.0,69,0.00,,,0.00,VWS V14.01,2013-10-22 14:13:00,
2013-10-22 07:18:00,50.0,40.2,29.93,South,187,0.0,0.0,69,0.00,,,0.00,VWS V14.01,2013-10-22 14:18:00,
2013-10-22 07:23:00,49.8,40.1,29.93,South,187,0.0,0.0,69,0.00,,,0.00,VWS V14.01,2013-10-22 14:23:00,
2013-10-22 07:28:00,49.6,39.9,29.93,South,187,0.0,0.0,69,0.00,,,0.00,VWS V14.01,2013-10-22 14:28:00,
2013-10-22 07:33:00,49.6,40.3,29.93,South,187,0.0,0.0,70,0.00,,,0.00,VWS V14.01,2013-10-22 14:33:00,
2013-10-22 07:38:00,49.8,40.4,29.96,South,187,0.0,0.0,70,0.00,,,0.00,VWS V14.01,2013-10-22 14:38:00,
2013-10-22 07:43:00,49.8,40.4,29.96,South,187,0.0,0.0,70,0.00,,,0.00,VWS V14.01,2013-10-22 14:43:00,
2013-10-22 07:48:00,49.8,40.4,29.96,South,187,0.0,0.0,70,0.00,,,0.00,VWS V14.01,2013-10-22 14:48:00,
2013-10-22 07:53:00,49.6,40.3,29.96,South,187,0.0,0.0,70,0.00,,,0.00,VWS V14.01,2013-10-22 14:53:00,
2013-10-22 07:58:00,49.6,40.3,29.96,South,187,0.0,0.0,70,0.00,,,0.00,VWS V14.01,2013-10-22 14:58:00,
2013-10-22 08:03:00,49.6,40.3,29.96,South,187,0.0,0.0,70,0.00,,,0.00,VWS V14.01,2013-10-22 15:03:00,
2013-10-22 08:08:00,49.8,40.8,29.96,South,187,0.0,0.0,71,0.00,,,0.00,VWS V14.01,2013-10-22 15:08:00,
2013-10-22 08:13:00,49.8,40.8,29.96,South,187,0.0,0.0,71,0.00,,,0.00,VWS V14.01,2013-10-22 15:13:00,
2013-10-22 08:18:00,49.8,40.8,29.96,South,187,0.0,0.0,71,0.00,,,0.00,VWS V14.01,2013-10-22 15:18:00,
2013-10-22 08:23:00,50.0,40.6,29.96,South,187,0.0,0.0,70,0.00,,,0.00,VWS V14.01,2013-10-22 15:23:00,
2013-10-22 08:28:00,50.0,41.0,29.96,South,187,0.0,0.0,71,0.00,,,0.00,VWS V14.01,2013-10-22 15:28:00,
2013-10-22 08:33:00,50.0,41.0,29.96,South,186,0.0,0.0,71,0.00,,,0.00,VWS V14.01,2013-10-22 15:33:00,
2013-10-22 08:38:00,50.0,40.6,29.96,South,186,0.0,0.0,70,0.00,,,0.00,VWS V14.01,2013-10-22 15:38:00,
2013-10-22 08:43:00,50.0,40.6,29.96,South,186,0.0,0.0,70,0.00,,,0.00,VWS V14.01,2013-10-22 15:43:00,
2013-10-22 08:48:00,50.0,40.6,29.96,South,186,0.0,0.0,70,0.00,,,0.00,VWS V14.01,2013-10-22 15:48:00,
2013-10-22 08:53:00,50.2,41.2,29.96,SSW,194,0.0,0.0,71,0.00,,,0.00,VWS V14.01,2013-10-22 15:53:00,
2013-10-22 08:58:00,50.4,41.3,29.96,SSW,194,0.0,0.0,71,0.00,,,0.00,VWS V14.01,2013-10-22 15:58:00,
2013-10-22 09:03:00,50.5,41.5,29.96,SSW,194,0.0,0.0,71,0.00,,,0.00,VWS V14.01,2013-10-22 16:03:00,
2013-10-22 09:08:00,50.9,42.2,29.96,SSW,194,0.0,0.0,72,0.00,,,0.00,VWS V14.01,2013-10-22 16:08:00,
2013-10-22 09:13:00,51.3,42.5,29.96,SSW,194,0.0,0.0,72,0.00,,,0.00,VWS V14.01,2013-10-22 16:13:00,
2013-10-22 09:18:00,51.6,42.9,29.96,SSW,194,0.0,0.0,72,0.00,,,0.00,VWS V14.01,2013-10-22 16:18:00,
2013-10-22 09:23:00,51.8,43.1,29.96,SSW,194,0.0,0.0,72,0.00,,,0.00,VWS V14.01,2013-10-22 16:23:00,
2013-10-22 09:28:00,52.0,43.2,29.96,SSW,194,0.0,0.0,72,0.00,,,0.00,VWS V14.01,2013-10-22 16:28:00,
2013-10-22 09:33:00,52.0,43.2,29.96,SSW,194,0.0,0.0,72,0.00,,,0.00,VWS V14.01,2013-10-22 16:33:00,
2013-10-22 09:38:00,52.2,43.4,29.96,SSW,194,0.0,0.0,72,0.00,,,0.00,VWS V14.01,2013-10-22 16:38:00,
2013-10-22 09:43:00,52.2,43.1,29.96,SSW,194,0.0,0.0,71,0.00,,,0.00,VWS V14.01,2013-10-22 16:43:00,
2013-10-22 09:48:00,52.2,43.1,29.96,SSW,194,0.0,0.0,71,0.00,,,0.00,VWS V14.01,2013-10-22 16:48:00,
2013-10-22 09:53:00,52.9,44.1,29.96,SSW,207,0.0,0.0,72,0.00,,,0.00,VWS V14.01,2013-10-22 16:53:00,
2013-10-22 09:58:00,53.1,44.3,29.96,SW,232,2.2,2.2,72,0.00,,,0.00,VWS V14.01,2013-10-22 16:58:00,
2013-10-22 10:03:00,52.9,43.8,29.96,West,273,0.0,0.0,71,0.00,,,0.00,VWS V14.01,2013-10-22 17:03:00,
2013-10-22 10:08:00,53.1,43.9,29.96,South,190,0.0,0.0,71,0.00,,,0.00,VWS V14.01,2013-10-22 17:08:00,
2013-10-22 10:13:00,53.1,44.3,29.96,SSW,205,0.0,0.0,72,0.00,,,0.00,VWS V14.01,2013-10-22 17:13:00,
2013-10-22 10:18:00,53.1,44.3,29.96,SSW,205,0.0,0.0,72,0.00,,,0.00,VWS V14.01,2013-10-22 17:18:00,
2013-10-22 10:23:00,53.4,44.6,29.93,SSW,205,0.0,0.0,72,0.00,,,0.00,VWS V14.01,2013-10-22 17:23:00,
2013-10-22 10:28:00,53.6,44.8,29.93,South,178,0.0,2.2,72,0.00,,,0.00,VWS V14.01,2013-10-22 17:28:00,
2013-10-22 10:33:00,53.8,45.0,29.93,SSW,205,2.2,3.1,72,0.00,,,0.00,VWS V14.01,2013-10-22 17:33:00,
2013-10-22 10:38:00,54.1,45.3,29.96,SW,221,2.7,2.7,72,0.00,,,0.00,VWS V14.01,2013-10-22 17:38:00,
2013-10-22 10:43:00,54.5,45.7,29.96,SW,227,0.0,0.0,72,0.00,,,0.00,VWS V14.01,2013-10-22 17:43:00,
2013-10-22 10:48:00,54.7,45.8,29.96,SSW,204,0.0,2.2,72,0.00,,,0.00,VWS V14.01,2013-10-22 17:48:00,
2013-10-22 10:53:00,55.2,46.4,29.93,West,265,3.6,3.6,72,0.00,,,0.00,VWS V14.01,2013-10-22 17:53:00,
2013-10-22 10:58:00,55.6,46.7,29.93,SSW,199,2.2,2.2,72,0.00,,,0.00,VWS V14.01,2013-10-22 17:58:00,
2013-10-22 11:03:00,56.3,47.8,29.93,WSW,245,0.0,0.0,73,0.00,,,0.00,VWS V14.01,2013-10-22 18:03:00,
2013-10-22 11:08:00,57.2,48.6,29.93,West,279,0.0,0.0,73,0.00,,,0.00,VWS V14.01,2013-10-22 18:08:00,
2013-10-22 11:13:00,58.1,49.9,29.93,SW,229,2.7,2.7,74,0.00,,,0.00,VWS V14.01,2013-10-22 18:13:00,
2013-10-22 11:18:00,59.0,50.4,29.93,SSW,203,2.7,2.7,73,0.00,,,0.00,VWS V14.01,2013-10-22 18:18:00,
2013-10-22 11:23:00,59.7,51.4,29.93,SW,225,3.6,3.6,74,0.00,,,0.00,VWS V14.01,2013-10-22 18:23:00,
2013-10-22 11:28:00,60.4,51.8,29.93,SW,232,4.0,4.0,73,0.00,,,0.00,VWS V14.01,2013-10-22 18:28:00,
2013-10-22 11:33:00,61.0,52.3,29.93,SSW,212,3.6,3.6,73,0.00,,,0.00,VWS V14.01,2013-10-22 18:33:00,
2013-10-22 11:38:00,61.2,52.1,29.93,WSW,253,2.2,2.7,72,0.00,,,0.00,VWS V14.01,2013-10-22 18:38:00,
2013-10-22 11:43:00,61.5,51.7,29.93,SW,221,3.1,3.1,70,0.00,,,0.00,VWS V14.01,2013-10-22 18:43:00,
2013-10-22 11:48:00,61.2,51.3,29.93,SW,229,3.6,3.6,70,0.00,,,0.00,VWS V14.01,2013-10-22 18:48:00,
2013-10-22 11:53:00,60.4,49.4,29.93,SW,223,2.7,3.1,67,0.00,,,0.00,VWS V14.01,2013-10-22 18:53:00,
2013-10-22 11:58:00,60.6,46.7,29.93,SSW,200,2.7,3.1,60,0.00,,,0.00,VWS V14.01,2013-10-22 18:58:00,
2013-10-22 12:03:00,60.8,43.6,29.93,SSW,193,0.0,0.0,53,0.00,,,0.00,VWS V14.01,2013-10-22 19:03:00,
2013-10-22 12:08:00,60.8,39.9,29.93,SSW,207,0.0,2.7,46,0.00,,,0.00,VWS V14.01,2013-10-22 19:08:00,
2013-10-22 12:13:00,60.8,36.3,29.93,SE,126,0.0,0.0,40,0.00,,,0.00,VWS V14.01,2013-10-22 19:13:00,
2013-10-22 12:18:00,61.3,35.5,29.93,SW,219,0.0,2.7,38,0.00,,,0.00,VWS V14.01,2013-10-22 19:18:00,
2013-10-22 12:23:00,61.9,34.7,29.93,SSW,209,3.1,3.6,36,0.00,,,0.00,VWS V14.01,2013-10-22 19:23:00,
2013-10-22 12:28:00,62.2,31.2,29.93,SW,233,3.1,3.6,31,0.00,,,0.00,VWS V14.01,2013-10-22 19:28:00,
2013-10-22 12:33:00,62.1,27.7,29.93,SW,221,2.7,2.7,27,0.00,,,0.00,VWS V14.01,2013-10-22 19:33:00,
2013-10-22 12:38:00,62.1,26.8,29.93,SW,218,3.1,3.1,26,0.00,,,0.00,VWS V14.01,2013-10-22 19:38:00,
2013-10-22 12:43:00,62.4,26.2,29.93,SSW,203,3.1,3.6,25,0.00,,,0.00,VWS V14.01,2013-10-22 19:43:00,
2013-10-22 12:48:00,62.6,25.3,29.93,West,275,4.0,4.5,24,0.00,,,0.00,VWS V14.01,2013-10-22 19:48:00,
2013-10-22 12:53:00,62.6,25.3,29.93,WSW,248,4.0,4.0,24,0.00,,,0.00,VWS V14.01,2013-10-22 19:53:00,
2013-10-22 12:58:00,62.8,25.5,29.93,West,271,2.7,2.7,24,0.00,,,0.00,VWS V14.01,2013-10-22 19:58:00,
2013-10-22 13:03:00,63.0,25.6,29.93,West,267,3.1,3.6,24,0.00,,,0.00,VWS V14.01,2013-10-22 20:03:00,
2013-10-22 13:08:00,63.1,25.8,29.90,SW,217,0.0,0.0,24,0.00,,,0.00,VWS V14.01,2013-10-22 20:08:00,
2013-10-22 13:13:00,63.5,22.9,29.90,West,280,3.6,4.9,21,0.00,,,0.00,VWS V14.01,2013-10-22 20:13:00,
2013-10-22 13:18:00,63.1,24.8,29.90,SW,228,2.7,2.7,23,0.00,,,0.00,VWS V14.01,2013-10-22 20:18:00,
2013-10-22 13:23:00,63.9,25.4,29.90,SSW,212,3.6,4.0,23,0.00,,,0.00,VWS V14.01,2013-10-22 20:23:00,
2013-10-22 13:28:00,63.9,23.2,29.90,WNW,294,3.1,3.6,21,0.00,,,0.00,VWS V14.01,2013-10-22 20:28:00,
2013-10-22 13:33:00,64.0,23.3,29.90,WSW,247,3.6,4.0,21,0.00,,,0.00,VWS V14.01,2013-10-22 20:33:00,
2013-10-22 13:38:00,64.0,23.3,29.90,SW,233,4.0,4.0,21,0.00,,,0.00,VWS V14.01,2013-10-22 20:38:00,
2013-10-22 13:43:00,64.2,23.5,29.90,WSW,252,0.0,0.0,21,0.00,,,0.00,VWS V14.01,2013-10-22 20:43:00,
2013-10-22 13:48:00,64.9,22.9,29.90,SW,224,2.7,3.1,20,0.00,,,0.00,VWS V14.01,2013-10-22 20:48:00,
2013-10-22 13:53:00,65.8,21.2,29.90,SW,232,3.1,3.1,18,0.00,,,0.00,VWS V14.01,2013-10-22 20:53:00,
2013-10-22 13:58:00,66.2,17.2,29.90,WSW,248,2.7,2.7,15,0.00,,,0.00,VWS V14.01,2013-10-22 20:58:00,
2013-10-22 14:03:00,66.4,17.4,29.90,SW,217,3.1,4.0,15,0.00,,,0.00,VWS V14.01,2013-10-22 21:03:00,
2013-10-22 14:08:00,66.6,17.5,29.90,SW,216,2.7,2.7,15,0.00,,,0.00,VWS V14.01,2013-10-22 21:08:00,
2013-10-22 14:13:00,66.9,17.8,29.90,SSW,203,3.1,3.6,15,0.00,,,0.00,VWS V14.01,2013-10-22 21:13:00,
2013-10-22 14:18:00,66.9,12.7,29.90,ESE,109,3.1,3.1,12,0.00,,,0.00,VWS V14.01,2013-10-22 21:18:00,
2013-10-22 14:23:00,66.7,12.5,29.90,SSW,201,3.6,3.6,12,0.00,,,0.00,VWS V14.01,2013-10-22 21:23:00,
2013-10-22 14:28:00,66.6,12.4,29.90,South,187,2.2,2.7,12,0.00,,,0.00,VWS V14.01,2013-10-22 21:28:00,
2013-10-22 14:33:00,66.9,12.7,29.90,SW,217,4.9,4.9,12,0.00,,,0.00,VWS V14.01,2013-10-22 21:33:00,
2013-10-22 14:38:00,66.4,12.3,29.90,SSW,209,3.1,3.6,12,0.00,,,0.00,VWS V14.01,2013-10-22 21:38:00,
2013-10-22 14:43:00,66.0,13.8,29.90,SW,233,5.4,5.4,13,0.00,,,0.00,VWS V14.01,2013-10-22 21:43:00,
2013-10-22 14:48:00,65.7,13.5,29.90,SSW,210,5.4,5.4,13,0.00,,,0.00,VWS V14.01,2013-10-22 21:48:00,
2013-10-22 14:53:00,65.5,13.4,29.90,WSW,243,2.7,3.6,13,0.00,,,0.00,VWS V14.01,2013-10-22 21:53:00,
2013-10-22 14:58:00,64.9,12.9,29.90,SW,219,3.6,4.0,13,0.00,,,0.00,VWS V14.01,2013-10-22 21:58:00,
2013-10-22 15:03:00,64.6,15.9,29.90,SSW,198,4.9,4.9,15,0.00,,,0.00,VWS V14.01,2013-10-22 22:03:00,
2013-10-22 15:08:00,64.4,15.8,29.90,SSW,211,2.7,4.0,15,0.00,,,0.00,VWS V14.01,2013-10-22 22:08:00,
2013-10-22 15:13:00,63.9,16.8,29.90,South,185,2.7,2.7,16,0.00,,,0.00,VWS V14.01,2013-10-22 22:13:00,
2013-10-22 15:18:00,64.0,17.0,29.90,WSW,239,3.1,4.9,16,0.00,,,0.00,VWS V14.01,2013-10-22 22:18:00,
2013-10-22 15:23:00,64.0,17.0,29.87,SW,219,4.9,4.9,16,0.00,,,0.00,VWS V14.01,2013-10-22 22:23:00,
2013-10-22 15:28:00,63.5,16.5,29.87,SW,219,3.1,3.6,16,0.00,,,0.00,VWS V14.01,2013-10-22 22:28:00,
2013-10-22 15:33:00,63.3,16.4,29.87,SSE,151,2.2,4.0,16,0.00,,,0.00,VWS V14.01,2013-10-22 22:33:00,
2013-10-22 15:38:00,63.7,16.7,29.87,West,271,4.0,4.0,16,0.00,,,0.00,VWS V14.01,2013-10-22 22:38:00,
2013-10-22 15:43:00,63.5,16.5,29.87,South,179,2.7,4.0,16,0.00,,,0.00,VWS V14.01,2013-10-22 22:43:00,
2013-10-22 15:48:00,63.0,16.1,29.87,WSW,244,3.1,4.0,16,0.00,,,0.00,VWS V14.01,2013-10-22 22:48:00,
2013-10-22 15:53:00,62.2,15.5,29.87,SW,224,3.1,3.1,16,0.00,,,0.00,VWS V14.01,2013-10-22 22:53:00,
2013-10-22 15:58:00,62.4,19.6,29.87,SSW,207,2.7,3.6,19,0.00,,,0.00,VWS V14.01,2013-10-22 22:58:00,
2013-10-22 16:03:00,62.4,19.6,29.87,SSW,202,2.7,3.1,19,0.00,,,0.00,VWS V14.01,2013-10-22 23:03:00,
2013-10-22 16:08:00,62.4,19.6,29.87,SSE,163,2.7,3.6,19,0.00,,,0.00,VWS V14.01,2013-10-22 23:08:00,
2013-10-22 16:13:00,61.9,19.2,29.87,WSW,242,3.6,3.6,19,0.00,,,0.00,VWS V14.01,2013-10-22 23:13:00,
2013-10-22 16:18:00,61.9,19.2,29.87,SSW,204,2.7,2.7,19,0.00,,,0.00,VWS V14.01,2013-10-22 23:18:00,
2013-10-22 16:23:00,61.7,19.0,29.87,SSW,210,3.6,4.0,19,0.00,,,0.00,VWS V14.01,2013-10-22 23:23:00,
2013-10-22 16:28:00,61.0,18.5,29.87,SSW,197,4.0,4.9,19,0.00,,,0.00,VWS V14.01,2013-10-22 23:28:00,
2013-10-22 16:33:00,60.3,21.3,29.87,WSW,249,4.0,4.0,22,0.00,,,0.00,VWS V14.01,2013-10-22 23:33:00,
2013-10-22 16:38:00,59.7,20.8,29.87,SSW,207,4.0,4.0,22,0.00,,,0.00,VWS V14.01,2013-10-22 23:38:00,
2013-10-22 16:43:00,59.2,22.4,29.87,SSW,212,2.7,3.6,24,0.00,,,0.00,VWS V14.01,2013-10-22 23:43:00,
2013-10-22 16:48:00,59.2,23.4,29.87,SW,216,5.8,5.8,25,0.00,,,0.00,VWS V14.01,2013-10-22 23:48:00,
2013-10-22 16:53:00,58.8,23.1,29.87,SSW,211,0.0,0.0,25,0.00,,,0.00,VWS V14.01,2013-10-22 23:53:00,
2013-10-22 16:58:00,58.8,24.0,29.87,WSW,244,3.6,4.9,26,0.00,,,0.00,VWS V14.01,2013-10-22 23:58:00,
2013-10-22 17:03:00,58.5,23.7,29.87,South,189,2.7,2.7,26,0.00,,,0.00,VWS V14.01,2013-10-23 00:03:00,
2013-10-22 17:08:00,58.3,23.6,29.87,ESE,106,2.7,3.6,26,0.00,,,0.00,VWS V14.01,2013-10-23 00:08:00,
2013-10-22 17:13:00,58.1,24.3,29.87,SSE,160,3.1,3.1,27,0.00,,,0.00,VWS V14.01,2013-10-23 00:13:00,
2013-10-22 17:18:00,57.7,24.0,29.87,South,176,4.0,4.0,27,0.00,,,0.00,VWS V14.01,2013-10-23 00:18:00,
2013-10-22 17:23:00,57.4,24.6,29.87,SW,217,2.2,2.2,28,0.00,,,0.00,VWS V14.01,2013-10-23 00:23:00,
2013-10-22 17:28:00,57.4,25.4,29.87,SE,126,2.7,4.0,29,0.00,,,0.00,VWS V14.01,2013-10-23 00:28:00,
2013-10-22 17:33:00,56.8,24.9,29.87,SSE,152,2.2,2.2,29,0.00,,,0.00,VWS V14.01,2013-10-23 00:33:00,
2013-10-22 17:38:00,56.5,25.4,29.87,East,83,3.1,3.1,30,0.00,,,0.00,VWS V14.01,2013-10-23 00:38:00,
2013-10-22 17:43:00,55.9,25.8,29.87,SSE,148,2.2,2.7,31,0.00,,,0.00,VWS V14.01,2013-10-23 00:43:00,
2013-10-22 17:48:00,55.2,26.6,29.87,SSE,163,0.0,0.0,33,0.00,,,0.00,VWS V14.01,2013-10-23 00:48:00,
2013-10-22 17:53:00,54.5,26.7,29.87,SSE,161,2.2,2.2,34,0.00,,,0.00,VWS V14.01,2013-10-23 00:53:00,
2013-10-22 17:58:00,54.0,27.0,29.87,SE,138,2.2,3.1,35,0.00,,,0.00,VWS V14.01,2013-10-23 00:58:00,
2013-10-22 18:03:00,53.4,27.1,29.87,South,180,0.0,3.1,36,0.00,,,0.00,VWS V14.01,2013-10-23 01:03:00,
2013-10-22 18:08:00,53.1,26.8,29.87,SSW,193,0.0,3.1,36,0.00,,,0.00,VWS V14.01,2013-10-23 01:08:00,
2013-10-22 18:13:00,52.9,27.3,29.87,SSW,193,0.0,0.0,37,0.00,,,0.00,VWS V14.01,2013-10-23 01:13:00,
2013-10-22 18:18:00,52.7,27.2,29.87,South,179,0.0,2.7,37,0.00,,,0.00,VWS V14.01,2013-10-23 01:18:00,
2013-10-22 18:23:00,52.7,27.8,29.87,SSW,209,0.0,0.0,38,0.00,,,0.00,VWS V14.01,2013-10-23 01:23:00,
2013-10-22 18:28:00,52.5,27.7,29.87,SSW,198,0.0,3.6,38,0.00,,,0.00,VWS V14.01,2013-10-23 01:28:00,
2013-10-22 18:33:00,52.3,28.1,29.87,SSW,207,0.0,2.2,39,0.00,,,0.00,VWS V14.01,2013-10-23 01:33:00,
2013-10-22 18:38:00,52.2,28.6,29.87,SSE,153,0.0,0.0,40,0.00,,,0.00,VWS V14.01,2013-10-23 01:38:00,
2013-10-22 18:43:00,52.0,29.0,29.87,SSW,200,0.0,0.0,41,0.00,,,0.00,VWS V14.01,2013-10-23 01:43:00,
2013-10-22 18:48:00,52.0,29.6,29.87,South,176,0.0,0.0,42,0.00,,,0.00,VWS V14.01,2013-10-23 01:48:00,
2013-10-22 18:53:00,52.0,30.2,29.87,SSW,210,0.0,0.0,43,0.00,,,0.00,VWS V14.01,2013-10-23 01:53:00,
2013-10-22 18:58:00,52.0,30.8,29.87,SSW,210,0.0,2.2,44,0.00,,,0.00,VWS V14.01,2013-10-23 01:58:00,
2013-10-22 19:03:00,52.2,30.9,29.87,SSW,195,0.0,2.7,44,0.00,,,0.00,VWS V14.01,2013-10-23 02:03:00,
2013-10-22 19:08:00,52.2,31.5,29.87,SSW,199,0.0,0.0,45,0.00,,,0.00,VWS V14.01,2013-10-23 02:08:00,
2013-10-22 19:13:00,52.3,32.2,29.87,SSW,192,0.0,0.0,46,0.00,,,0.00,VWS V14.01,2013-10-23 02:13:00,
2013-10-22 19:18:00,52.2,32.0,29.87,SW,217,3.1,3.1,46,0.00,,,0.00,VWS V14.01,2013-10-23 02:18:00,
2013-10-22 19:23:00,52.2,32.6,29.87,WSW,238,3.6,3.6,47,0.00,,,0.00,VWS V14.01,2013-10-23 02:23:00,
2013-10-22 19:28:00,52.2,32.6,29.87,South,173,3.1,3.1,47,0.00,,,0.00,VWS V14.01,2013-10-23 02:28:00,
2013-10-22 19:33:00,52.0,32.4,29.87,SSW,202,0.0,0.0,47,0.00,,,0.00,VWS V14.01,2013-10-23 02:33:00,
2013-10-22 19:38:00,52.0,32.9,29.87,SW,226,2.7,3.1,48,0.00,,,0.00,VWS V14.01,2013-10-23 02:38:00,
2013-10-22 19:43:00,51.8,32.8,29.87,WSW,251,2.7,2.7,48,0.00,,,0.00,VWS V14.01,2013-10-23 02:43:00,
2013-10-22 19:48:00,51.8,32.8,29.87,SW,220,0.0,3.1,48,0.00,,,0.00,VWS V14.01,2013-10-23 02:48:00,
2013-10-22 19:53:00,51.8,33.3,29.87,WSW,240,0.0,0.0,49,0.00,,,0.00,VWS V14.01,2013-10-23 02:53:00,
2013-10-22 19:58:00,52.0,33.4,29.87,SSE,163,2.7,2.7,49,0.00,,,0.00,VWS V14.01,2013-10-23 02:58:00,
2013-10-22 20:03:00,52.0,33.4,29.87,SSW,212,3.1,4.0,49,0.00,,,0.00,VWS V14.01,2013-10-23 03:03:00,
2013-10-22 20:08:00,52.0,33.9,29.87,SSE,156,3.1,3.1,50,0.00,,,0.00,VWS V14.01,2013-10-23 03:08:00,
2013-10-22 20:13:00,51.8,33.8,29.87,SW,219,3.1,3.6,50,0.00,,,0.00,VWS V14.01,2013-10-23 03:13:00,
2013-10-22 20:18:00,51.8,33.8,29.87,SSW,200,4.0,4.0,50,0.00,,,0.00,VWS V14.01,2013-10-23 03:18:00,
2013-10-22 20:23:00,51.6,34.1,29.90,SSW,197,0.0,0.0,51,0.00,,,0.00,VWS V14.01,2013-10-23 03:23:00,
2013-10-22 20:28:00,51.6,34.6,29.90,South,173,2.7,2.7,52,0.00,,,0.00,VWS V14.01,2013-10-23 03:28:00,
2013-10-22 20:33:00,51.6,34.6,29.90,SSW,199,0.0,0.0,52,0.00,,,0.00,VWS V14.01,2013-10-23 03:33:00,
2013-10-22 20:38:00,51.8,34.8,29.90,South,190,2.7,3.6,52,0.00,,,0.00,VWS V14.01,2013-10-23 03:38:00,
2013-10-22 20:43:00,51.8,34.8,29.90,SSW,206,3.6,4.9,52,0.00,,,0.00,VWS V14.01,2013-10-23 03:43:00,
2013-10-22 20:48:00,51.8,35.2,29.90,SSW,209,2.2,2.2,53,0.00,,,0.00,VWS V14.01,2013-10-23 03:48:00,
2013-10-22 20:53:00,51.8,35.2,29.90,SSW,212,2.7,2.7,53,0.00,,,0.00,VWS V14.01,2013-10-23 03:53:00,
2013-10-22 20:58:00,51.8,35.2,29.90,SW,224,0.0,2.2,53,0.00,,,0.00,VWS V14.01,2013-10-23 03:58:00,
2013-10-22 21:01:00,51.6,35.5,29.90,SSW,204,0.0,2.7,54,0.00,,,0.00,VWS V14.01,2013-10-23 04:01:00,
2013-10-22 21:06:00,51.6,35.5,29.90,South,179,0.0,0.0,54,0.00,,,0.00,VWS V14.01,2013-10-23 04:06:00,
2013-10-22 21:11:00,51.6,35.5,29.90,South,179,0.0,0.0,54,0.00,,,0.00,VWS V14.01,2013-10-23 04:11:00,
2013-10-22 21:16:00,51.6,36.0,29.90,South,179,0.0,0.0,55,0.00,,,0.00,VWS V14.01,2013-10-23 04:16:00,
2013-10-22 21:21:00,51.6,36.0,29.90,South,179,0.0,0.0,55,0.00,,,0.00,VWS V14.01,2013-10-23 04:21:00,
2013-10-22 21:26:00,51.4,35.8,29.90,South,179,0.0,0.0,55,0.00,,,0.00,VWS V14.01,2013-10-23 04:26:00,
2013-10-22 21:31:00,51.4,35.8,29.90,South,179,0.0,0.0,55,0.00,,,0.00,VWS V14.01,2013-10-23 04:31:00,
2013-10-22 21:37:00,51.4,35.8,29.90,South,179,0.0,0.0,55,0.00,,,0.00,VWS V14.01,2013-10-23 04:37:00,
2013-10-22 21:42:00,51.4,35.8,29.90,South,179,0.0,0.0,55,0.00,,,0.00,VWS V14.01,2013-10-23 04:42:00,
2013-10-22 21:47:00,51.4,35.8,29.90,West,261,0.0,0.0,55,0.00,,,0.00,VWS V14.01,2013-10-23 04:47:00,
2013-10-22 21:52:00,51.3,35.7,29.90,West,266,0.0,0.0,55,0.00,,,0.00,VWS V14.01,2013-10-23 04:52:00,
2013-10-22 21:57:00,51.3,35.7,29.90,West,266,0.0,0.0,55,0.00,,,0.00,VWS V14.01,2013-10-23 04:57:00,
2013-10-22 22:02:00,51.3,36.1,29.90,West,266,0.0,0.0,56,0.00,,,0.00,VWS V14.01,2013-10-23 05:02:00,
2013-10-22 22:07:00,51.3,36.1,29.90,WSW,246,0.0,0.0,56,0.00,,,0.00,VWS V14.01,2013-10-23 05:07:00,
2013-10-22 22:12:00,51.3,36.1,29.90,WSW,246,0.0,0.0,56,0.00,,,0.00,VWS V14.01,2013-10-23 05:12:00,
2013-10-22 22:17:00,51.1,36.0,29.90,WSW,246,0.0,0.0,56,0.00,,,0.00,VWS V14.01,2013-10-23 05:17:00,
2013-10-22 22:22:00,50.9,35.8,29.90,WSW,246,0.0,0.0,56,0.00,,,0.00,VWS V14.01,2013-10-23 05:22:00,
2013-10-22 22:27:00,50.9,36.2,29.90,WSW,246,0.0,0.0,57,0.00,,,0.00,VWS V14.01,2013-10-23 05:27:00,
2013-10-22 22:32:00,51.1,36.4,29.90,WSW,246,0.0,0.0,57,0.00,,,0.00,VWS V14.01,2013-10-23 05:32:00,
2013-10-22 22:37:00,51.1,36.4,29.90,WSW,246,0.0,0.0,57,0.00,,,0.00,VWS V14.01,2013-10-23 05:37:00,
2013-10-22 22:42:00,51.1,36.4,29.90,WSW,247,0.0,0.0,57,0.00,,,0.00,VWS V14.01,2013-10-23 05:42:00,
2013-10-22 22:47:00,51.1,36.4,29.90,WSW,247,0.0,0.0,57,0.00,,,0.00,VWS V14.01,2013-10-23 05:47:00,
2013-10-22 22:52:00,50.9,36.2,29.90,WSW,248,0.0,0.0,57,0.00,,,0.00,VWS V14.01,2013-10-23 05:52:00,
2013-10-22 22:57:00,50.9,36.2,29.90,WSW,247,0.0,0.0,57,0.00,,,0.00,VWS V14.01,2013-10-23 05:57:00,
2013-10-22 23:02:00,50.7,36.1,29.90,WSW,247,0.0,0.0,57,0.00,,,0.00,VWS V14.01,2013-10-23 06:02:00,
2013-10-22 23:07:00,50.7,36.1,29.90,WSW,247,0.0,0.0,57,0.00,,,0.00,VWS V14.01,2013-10-23 06:07:00,
2013-10-22 23:12:00,50.7,36.5,29.90,WSW,247,0.0,0.0,58,0.00,,,0.00,VWS V14.01,2013-10-23 06:12:00,
2013-10-22 23:17:00,50.7,36.5,29.90,WSW,247,0.0,0.0,58,0.00,,,0.00,VWS V14.01,2013-10-23 06:17:00,
2013-10-22 23:22:00,50.5,36.3,29.90,WSW,247,0.0,0.0,58,0.00,,,0.00,VWS V14.01,2013-10-23 06:22:00,
2013-10-22 23:27:00,50.5,36.3,29.90,WSW,247,0.0,0.0,58,0.00,,,0.00,VWS V14.01,2013-10-23 06:27:00,
2013-10-22 23:32:00,50.5,36.3,29.90,WSW,247,0.0,0.0,58,0.00,,,0.00,VWS V14.01,2013-10-23 06:32:00,
2013-10-22 23:37:00,50.7,36.9,29.90,WSW,247,0.0,0.0,59,0.00,,,0.00,VWS V14.01,2013-10-23 06:37:00,
2013-10-22 23:42:00,50.7,36.9,29.90,WSW,247,0.0,0.0,59,0.00,,,0.00,VWS V14.01,2013-10-23 06:42:00,
2013-10-22 23:47:00,50.7,36.9,29.90,WSW,247,0.0,0.0,59,0.00,,,0.00,VWS V14.01,2013-10-23 06:47:00,
2013-10-22 23:52:00,50.7,36.9,29.90,WSW,247,0.0,0.0,59,0.00,,,0.00,VWS V14.01,2013-10-23 06:52:00,
2013-10-22 23:57:00,50.5,36.8,29.90,WSW,247,0.0,0.0,59,0.00,,,0.00,VWS V14.01,2013-10-23 06:57:00,